Terminal Aerodrome Forecast
Issued by NWS Cleveland, OH

Home | Current Version | Previous Version | Graphics & Text | Print | Product List | Glossary Off
Versions: 1 2 3 4 5 6 7 8 9 10 11 12 13 14 15 16 17

584
FTUS41 KCLE 241741
TAFTOL
TAF
KTOL 241741Z 2418/2518 05010KT P6SM OVC035
      TEMPO 2418/2419 3SM -TSRA OVC025CB
     FM242100 05012KT 6SM -SHRA OVC025
     FM250200 05012KT 3SM -SHRA BR OVC008
     FM250900 VRB05KT 5SM BR VCSH OVC004
     FM251500 30007KT P6SM VCSH OVC008=

USA.gov is the U.S. government's official web portal to all federal, state and local government web resources and services.